KELY

Ely Arpt / Yelland Field / Airport

Ely, Nevada, USA
KELY 230520Z 2306/2406 33008KT P6SM VCSH SCT050 OVC100 FM231000 33008KT P6SM SCT120 BKN250 FM232000 35008KT P6SM BKN250
Issued Valid From Valid To
Apr-23 @ 05:20 UTC
(4 hours ago)
Apr-23 @ 06:00 UTC
(4 hours ago)
Apr-24 @ 06:00 UTC
(in 20 hours)
Apr-23 @ 06:00 to Apr-23 @ 10:00
KELY 230520Z 2306/2406 33008KT P6SM VCSH SCT050 OVC100
Wind Visibility Clouds
330° at 8 knots Greater than 6 miles
  • Scattered at 5,000' AGL
  • Overcast at 10,000' AGL
From Apr-23 @ 10:00 to Apr-23 @ 20:00
FM231000 33008KT P6SM SCT120 BKN250
Wind Visibility Clouds
330° at 8 knots Greater than 6 miles
  • Scattered at 12,000' AGL
  • Broken at 25,000' AGL
From Apr-23 @ 20:00 to Apr-24 @ 06:00
FM232000 35008KT P6SM BKN250
Wind Visibility Clouds
350° at 8 knots Greater than 6 miles
  • Broken at 25,000' AGL
KELY 230520Z 2306/2406 33008KT P6SM VCSH SCT050 OVC100 FM231000 33008KT P6SM SCT120 BKN250 FM232000 35008KT P6SM BKN250
Issued Apr-23 @ 05:20 UTC
(4 hours ago)
Valid From Apr-23 @ 06:00 UTC
(4 hours ago)
Valid To Apr-24 @ 06:00 UTC
(in 20 hours)
Apr-23 @ 06:00 - Apr-23 @ 10:00
Wind Visibility
330° at 8 knots Greater than 6 miles
Clouds
  • Scattered at 5,000' AGL
  • Overcast at 10,000' AGL
From Apr-23 @ 10:00 - Apr-23 @ 20:00
Wind Visibility
330° at 8 knots Greater than 6 miles
Clouds
  • Scattered at 12,000' AGL
  • Broken at 25,000' AGL
From Apr-23 @ 20:00 - Apr-24 @ 06:00
Wind Visibility
350° at 8 knots Greater than 6 miles
Clouds
  • Broken at 25,000' AGL